createdAt,value
2018-03-03T00:03:21.158Z,45.03
2018-03-03T00:08:12.071Z,51.17
2018-03-03T00:13:02.961Z,62.63
2018-03-03T00:17:53.901Z,44.70
2018-03-03T00:22:44.803Z,56.90
2018-03-03T00:27:35.763Z,47.47
2018-03-03T00:32:26.656Z,55.07
2018-03-03T00:37:17.552Z,51.93
2018-03-03T00:42:08.450Z,55.93
2018-03-03T00:47:00.091Z,49.00
2018-03-03T00:51:51.721Z,47.90
2018-03-03T00:56:43.369Z,45.97
2018-03-03T01:01:34.253Z,50.67
2018-03-03T01:06:25.240Z,48.87
2018-03-03T01:11:16.124Z,53.47
2018-03-03T01:16:07.779Z,41.47
2018-03-03T01:20:58.710Z,38.57
2018-03-03T01:25:49.664Z,49.63
2018-03-03T01:30:40.616Z,47.57
2018-03-03T01:35:31.511Z,53.80
2018-03-03T01:40:22.500Z,48.27
2018-03-03T01:45:13.420Z,52.93
2018-03-03T01:50:04.314Z,59.60
2018-03-03T01:54:55.225Z,55.40
2018-03-03T01:59:46.112Z,62.20
2018-03-03T02:04:37.752Z,53.53
2018-03-03T02:09:29.407Z,48.07
2018-03-03T02:14:20.321Z,52.33
2018-03-03T02:19:11.214Z,72.00
2018-03-03T02:24:02.920Z,58.63
2018-03-03T02:28:53.800Z,44.93
2018-03-03T02:33:44.701Z,43.17
2018-03-03T02:38:36.381Z,46.83
2018-03-03T02:43:27.301Z,46.40
2018-03-03T02:48:18.200Z,41.97
2018-03-03T02:53:09.118Z,44.97
2018-03-03T02:58:00.018Z,49.00
2018-03-03T03:02:51.697Z,50.83
2018-03-03T03:07:42.625Z,64.30
2018-03-03T03:12:33.557Z,46.40
2018-03-03T03:17:24.454Z,38.20
2018-03-03T03:22:15.345Z,45.90
2018-03-03T03:32:24.155Z,54.25
2018-03-03T03:37:30.022Z,62.73
2018-03-03T03:42:20.918Z,45.63
2018-03-03T03:47:11.820Z,48.70
2018-03-03T03:52:02.721Z,44.37
2018-03-03T03:56:53.622Z,30.03
2018-03-03T04:01:45.251Z,48.20
2018-03-03T04:06:36.895Z,46.37
2018-03-03T04:11:28.618Z,35.90
2018-03-03T04:16:19.518Z,49.50
2018-03-03T04:21:10.402Z,43.63
2018-03-03T04:26:01.351Z,55.90
2018-03-03T04:30:52.248Z,34.73
2018-03-03T04:35:43.133Z,43.60
2018-03-03T04:40:34.761Z,44.73
2018-03-03T04:45:26.388Z,48.77
2018-03-03T04:50:19.045Z,47.03
2018-03-03T04:55:19.325Z,41.60
2018-03-03T05:00:16.438Z,49.20
2018-03-03T05:05:13.588Z,45.57
2018-03-03T05:10:04.485Z,37.80
2018-03-03T05:15:01.549Z,38.50
2018-03-03T05:19:58.425Z,42.27
2018-03-03T05:24:59.343Z,46.53
2018-03-03T05:30:11.110Z,64.70
2018-03-03T05:40:27.547Z,58.47
2018-03-03T05:45:24.614Z,36.50
2018-03-03T05:50:19.538Z,44.87
2018-03-03T05:55:11.173Z,49.40
2018-03-03T06:05:26.702Z,59.35
2018-03-03T06:10:18.336Z,46.17
2018-03-03T06:15:10.025Z,37.90
2018-03-03T06:20:01.096Z,42.30
2018-03-03T06:24:52.721Z,47.13
2018-03-03T06:29:43.701Z,38.03
2018-03-03T06:34:34.633Z,61.83
2018-03-03T06:39:25.524Z,43.30
2018-03-03T06:44:16.413Z,45.57
2018-03-03T06:49:08.335Z,36.13
2018-03-03T06:53:59.325Z,36.53
2018-03-03T06:58:50.226Z,35.53
2018-03-03T07:03:41.162Z,57.30
2018-03-03T07:08:33.801Z,54.60
2018-03-03T07:13:24.770Z,38.13
2018-03-03T07:18:15.679Z,43.97
2018-03-03T07:23:06.585Z,40.23
2018-03-03T07:27:57.518Z,39.20
2018-03-03T07:32:48.413Z,32.03
2018-03-03T07:37:39.323Z,46.60
2018-03-03T07:42:30.229Z,39.33
2018-03-03T07:47:21.130Z,48.33
2018-03-03T07:52:12.813Z,47.67
2018-03-03T07:57:10.965Z,36.53
2018-03-03T08:02:01.856Z,52.63
2018-03-03T08:06:53.492Z,35.97
2018-03-03T08:11:45.128Z,38.03
2018-03-03T08:16:36.773Z,31.27
2018-03-03T08:21:28.416Z,35.37
2018-03-03T08:26:26.273Z,17.60
2018-03-03T08:31:18.644Z,35.73
2018-03-03T08:36:17.117Z,25.13
2018-03-03T08:41:08.009Z,33.30
2018-03-03T08:45:58.932Z,44.10
2018-03-03T08:50:50.567Z,38.43
2018-03-03T08:55:41.465Z,41.97
2018-03-03T09:00:32.344Z,44.43
2018-03-03T09:05:23.990Z,40.37
2018-03-03T09:10:14.880Z,39.17
2018-03-03T09:15:05.773Z,27.67
2018-03-03T09:19:56.672Z,37.50
2018-03-03T09:24:47.565Z,32.10
2018-03-03T09:29:38.461Z,19.57
2018-03-03T09:34:30.108Z,23.27
2018-03-03T09:39:21.744Z,18.53
2018-03-03T09:44:13.384Z,18.37
2018-03-03T09:49:04.349Z,24.00
2018-03-03T09:53:55.253Z,27.20
2018-03-03T09:58:46.160Z,20.80
2018-03-03T10:03:37.108Z,15.40
2018-03-03T10:08:27.993Z,19.60
2018-03-03T10:13:18.888Z,18.10
2018-03-03T10:18:10.607Z,15.00
2018-03-03T10:23:01.500Z,15.60
2018-03-03T10:27:52.410Z,20.73
2018-03-03T10:32:43.296Z,23.23
2018-03-03T10:37:34.176Z,25.37
2018-03-03T10:42:26.545Z,15.97
2018-03-03T10:47:18.225Z,16.10
2018-03-03T10:52:09.131Z,16.53
2018-03-03T10:57:00.018Z,46.67
2018-03-03T11:01:51.656Z,50.53
2018-03-03T11:06:43.301Z,42.63
2018-03-03T11:11:34.232Z,46.30
2018-03-03T11:16:25.183Z,48.97
2018-03-03T11:21:16.096Z,54.63
2018-03-03T11:26:06.980Z,45.47
2018-03-03T11:30:57.864Z,43.30
2018-03-03T11:35:48.857Z,44.67
2018-03-03T11:40:39.764Z,47.13
2018-03-03T11:45:30.661Z,43.33
2018-03-03T11:50:21.617Z,54.30
2018-03-03T11:55:12.561Z,46.83
2018-03-03T12:00:03.449Z,52.50
2018-03-03T12:04:54.345Z,43.00
2018-03-03T12:09:45.424Z,49.30
2018-03-03T12:14:36.361Z,44.80
2018-03-03T12:19:28.022Z,37.73
2018-03-03T12:24:18.918Z,37.67
2018-03-03T12:29:10.626Z,45.33
2018-03-03T12:34:01.577Z,37.00
2018-03-03T12:38:53.209Z,40.87
2018-03-03T12:43:44.880Z,40.20
2018-03-03T12:48:35.791Z,38.83
2018-03-03T12:53:26.729Z,35.90
2018-03-03T12:58:17.617Z,35.93
2018-03-03T13:03:08.517Z,35.90
2018-03-03T13:08:00.153Z,40.20
2018-03-03T13:12:51.803Z,29.63
2018-03-03T13:17:42.704Z,27.77
2018-03-03T13:22:34.347Z,19.57
2018-03-03T13:27:25.978Z,21.90
2018-03-03T13:32:17.612Z,19.63
2018-03-03T13:37:09.240Z,25.93
2018-03-03T13:42:00.873Z,27.10
2018-03-03T13:46:52.496Z,22.53
2018-03-03T13:51:43.384Z,31.03
2018-03-03T13:56:34.270Z,26.80
2018-03-03T14:01:25.152Z,33.83
2018-03-03T14:06:16.044Z,25.37
2018-03-03T14:11:06.949Z,19.67
2018-03-03T14:15:57.845Z,28.40
2018-03-03T14:20:48.818Z,28.80
2018-03-03T14:25:39.792Z,37.80
2018-03-03T14:30:30.685Z,36.77
2018-03-03T14:35:22.320Z,34.53
2018-03-03T14:40:13.949Z,34.10
2018-03-03T14:45:05.568Z,29.10
2018-03-03T14:49:56.452Z,35.13
2018-03-03T14:54:47.364Z,32.53
2018-03-03T14:59:38.245Z,32.97
2018-03-03T15:04:29.873Z,28.97
2018-03-03T15:09:21.500Z,25.40
2018-03-03T15:14:13.145Z,30.83
2018-03-03T15:19:04.798Z,32.60
2018-03-03T15:23:55.695Z,29.63
2018-03-03T15:28:47.343Z,32.13
2018-03-03T15:33:38.314Z,27.03
2018-03-03T15:38:29.212Z,34.03
2018-03-03T15:43:20.145Z,42.50
2018-03-03T15:48:11.054Z,36.23
2018-03-03T15:53:02.000Z,39.00
2018-03-03T15:57:53.000Z,35.20
2018-03-03T16:02:44.736Z,35.17
2018-03-03T16:07:35.705Z,35.73
2018-03-03T16:12:27.428Z,40.33
2018-03-03T16:17:18.356Z,40.50
2018-03-03T16:22:09.981Z,37.47
2018-03-03T16:27:00.874Z,35.83
2018-03-03T16:31:51.761Z,38.27
2018-03-03T16:36:42.702Z,38.67
2018-03-03T16:41:33.584Z,30.87
2018-03-03T16:46:24.537Z,30.73
2018-03-03T16:51:15.475Z,33.70
2018-03-03T16:56:06.417Z,32.93
2018-03-03T17:00:57.263Z,29.23
2018-03-03T17:05:48.176Z,35.73
2018-03-03T17:10:39.106Z,30.73
2018-03-03T17:15:30.050Z,31.53
2018-03-03T17:20:20.929Z,35.27
2018-03-03T17:25:12.644Z,34.17
2018-03-03T17:30:03.537Z,37.33
2018-03-03T17:34:54.426Z,34.87
2018-03-03T17:39:47.053Z,33.60
2018-03-03T17:49:58.154Z,40.90
2018-03-03T17:54:49.224Z,31.43
2018-03-03T17:59:40.148Z,32.63
2018-03-03T18:04:31.097Z,35.47
2018-03-03T18:09:22.009Z,35.73
2018-03-03T18:14:12.923Z,36.37
2018-03-03T18:19:03.850Z,34.90
2018-03-03T18:23:54.737Z,33.47
2018-03-03T18:28:45.741Z,44.40
2018-03-03T18:33:37.698Z,31.90
2018-03-03T18:38:28.695Z,36.73
2018-03-03T18:43:20.328Z,34.37
2018-03-03T18:48:11.957Z,33.53
2018-03-03T18:53:02.845Z,28.33
2018-03-03T18:57:53.782Z,29.47
2018-03-03T19:02:44.677Z,33.90
2018-03-03T19:07:35.565Z,39.33
2018-03-03T19:12:26.460Z,40.10
2018-03-03T19:17:18.097Z,30.20
2018-03-03T19:22:09.725Z,29.27
2018-03-03T19:27:01.353Z,28.03
2018-03-03T19:31:52.244Z,29.37
2018-03-03T19:36:43.147Z,29.30
2018-03-03T19:41:34.781Z,30.87
2018-03-03T19:46:25.697Z,27.70
2018-03-03T19:51:16.593Z,33.77
2018-03-03T19:56:07.488Z,28.73
2018-03-03T20:00:59.129Z,37.07
2018-03-03T20:05:50.761Z,32.50
2018-03-03T20:10:42.398Z,30.83
2018-03-03T20:15:34.060Z,30.30
2018-03-03T20:20:24.973Z,27.67
2018-03-03T20:25:15.879Z,30.03
2018-03-03T20:30:07.522Z,27.53
2018-03-03T20:34:58.426Z,30.40
2018-03-03T20:39:50.140Z,36.17
2018-03-03T20:44:41.045Z,33.43
2018-03-03T20:49:31.959Z,33.10
2018-03-03T20:54:22.959Z,35.53
2018-03-03T20:59:13.853Z,36.07
2018-03-03T21:04:04.849Z,37.50
2018-03-03T21:08:56.585Z,35.03
2018-03-03T21:13:48.228Z,31.40
2018-03-03T21:18:39.956Z,46.13
2018-03-03T21:23:30.944Z,31.70
2018-03-03T21:28:21.881Z,34.70
2018-03-03T21:33:12.883Z,40.50
2018-03-03T21:38:03.804Z,34.33
2018-03-03T21:42:54.753Z,40.20
2018-03-03T21:47:45.758Z,38.90
2018-03-03T21:52:38.247Z,40.60
2018-03-03T21:57:29.933Z,40.90
2018-03-03T22:02:21.352Z,34.13
2018-03-03T23:31:34.240Z,41.27
2018-03-03T23:36:25.154Z,46.67
2018-03-03T23:41:16.837Z,45.00
2018-03-03T23:46:08.475Z,55.00
2018-03-03T23:51:00.165Z,43.77
2018-03-03T23:55:51.078Z,36.30
